sensor_id;sensor_type;location;lat;lon;timestamp;P1;durP1;ratioP1;P2;durP2;ratioP2
12030;SDS011;6076;50.872;4.714;2022-11-23T08:10:32;9.10;;;3.27;;
12030;SDS011;6076;50.872;4.714;2022-11-23T08:13:17;12.60;;;3.43;;
12030;SDS011;6076;50.872;4.714;2022-11-23T08:15:53;9.37;;;3.20;;
12030;SDS011;6076;50.872;4.714;2022-11-23T08:18:27;11.73;;;3.70;;
12030;SDS011;6076;50.872;4.714;2022-11-23T08:20:57;10.20;;;3.60;;
12030;SDS011;6076;50.872;4.714;2022-11-23T08:23:34;12.37;;;3.77;;
12030;SDS011;6076;50.872;4.714;2022-11-23T08:26:08;12.17;;;3.27;;
12030;SDS011;6076;50.872;4.714;2022-11-23T08:28:38;12.27;;;3.40;;
12030;SDS011;6076;50.872;4.714;2022-11-23T08:31:08;9.57;;;3.20;;
12030;SDS011;6076;50.872;4.714;2022-11-23T08:33:39;11.60;;;3.10;;
12030;SDS011;6076;50.872;4.714;2022-11-23T08:36:07;11.40;;;3.50;;
12030;SDS011;6076;50.872;4.714;2022-11-23T08:38:36;13.17;;;3.40;;
12030;SDS011;6076;50.872;4.714;2022-11-23T08:41:05;10.33;;;3.50;;
12030;SDS011;6076;50.872;4.714;2022-11-23T08:43:34;11.53;;;2.90;;
12030;SDS011;6076;50.872;4.714;2022-11-23T08:46:02;11.27;;;3.17;;
12030;SDS011;6076;50.872;4.714;2022-11-23T08:48:30;12.13;;;3.07;;
12030;SDS011;6076;50.872;4.714;2022-11-23T08:50:59;11.03;;;3.27;;
12030;SDS011;6076;50.872;4.714;2022-11-23T08:53:27;11.57;;;3.43;;
12030;SDS011;6076;50.872;4.714;2022-11-23T08:55:54;9.53;;;2.60;;
12030;SDS011;6076;50.872;4.714;2022-11-23T08:58:27;10.03;;;3.10;;
12030;SDS011;6076;50.872;4.714;2022-11-23T09:00:55;10.00;;;2.93;;
12030;SDS011;6076;50.872;4.714;2022-11-23T09:03:23;10.63;;;3.40;;
12030;SDS011;6076;50.872;4.714;2022-11-23T09:05:51;8.10;;;2.93;;
12030;SDS011;6076;50.872;4.714;2022-11-23T09:08:19;8.33;;;3.00;;
12030;SDS011;6076;50.872;4.714;2022-11-23T09:10:47;5.63;;;2.70;;
12030;SDS011;6076;50.872;4.714;2022-11-23T09:13:15;8.70;;;2.40;;
12030;SDS011;6076;50.872;4.714;2022-11-23T09:15:48;9.17;;;2.93;;
12030;SDS011;6076;50.872;4.714;2022-11-23T09:18:16;10.63;;;3.27;;
12030;SDS011;6076;50.872;4.714;2022-11-23T09:20:55;8.60;;;2.50;;
12030;SDS011;6076;50.872;4.714;2022-11-23T09:23:24;8.17;;;2.77;;
12030;SDS011;6076;50.872;4.714;2022-11-23T09:25:52;9.20;;;3.13;;
12030;SDS011;6076;50.872;4.714;2022-11-23T09:28:21;9.23;;;2.70;;
12030;SDS011;6076;50.872;4.714;2022-11-23T09:30:51;8.63;;;3.00;;
12030;SDS011;6076;50.872;4.714;2022-11-23T09:33:18;7.20;;;3.20;;
12030;SDS011;6076;50.872;4.714;2022-11-23T09:35:54;7.63;;;3.23;;
12030;SDS011;6076;50.872;4.714;2022-11-23T09:38:23;8.03;;;3.20;;
12030;SDS011;6076;50.872;4.714;2022-11-23T09:40:53;8.83;;;3.00;;
12030;SDS011;6076;50.872;4.714;2022-11-23T09:43:36;9.83;;;2.90;;
12030;SDS011;6076;50.872;4.714;2022-11-23T09:46:15;7.40;;;2.80;;
12030;SDS011;6076;50.872;4.714;2022-11-23T09:51:36;7.70;;;3.40;;
12030;SDS011;6076;50.872;4.714;2022-11-23T09:54:08;7.13;;;2.90;;
12030;SDS011;6076;50.872;4.714;2022-11-23T09:56:41;10.93;;;3.67;;
12030;SDS011;6076;50.872;4.714;2022-11-23T09:59:16;5.67;;;2.80;;
12030;SDS011;6076;50.872;4.714;2022-11-23T10:01:53;4.40;;;2.27;;
12030;SDS011;6076;50.872;4.714;2022-11-23T10:04:22;5.57;;;2.27;;
12030;SDS011;6076;50.872;4.714;2022-11-23T10:06:52;6.67;;;2.60;;
12030;SDS011;6076;50.872;4.714;2022-11-23T10:09:26;7.97;;;3.10;;
12030;SDS011;6076;50.872;4.714;2022-11-23T10:12:31;6.17;;;2.33;;
12030;SDS011;6076;50.872;4.714;2022-11-23T10:15:09;7.27;;;2.50;;
12030;SDS011;6076;50.872;4.714;2022-11-23T10:20:57;7.93;;;2.60;;
12030;SDS011;6076;50.872;4.714;2022-11-23T10:23:36;6.37;;;2.60;;
12030;SDS011;6076;50.872;4.714;2022-11-23T10:26:13;7.10;;;2.50;;
12030;SDS011;6076;50.872;4.714;2022-11-23T10:28:46;5.90;;;2.83;;
12030;SDS011;6076;50.872;4.714;2022-11-23T10:31:16;6.90;;;2.43;;
12030;SDS011;6076;50.872;4.714;2022-11-23T10:33:48;4.67;;;2.50;;
12030;SDS011;6076;50.872;4.714;2022-11-23T10:36:27;7.10;;;2.50;;
12030;SDS011;6076;50.872;4.714;2022-11-23T10:38:56;3.63;;;2.27;;
12030;SDS011;6076;50.872;4.714;2022-11-23T10:41:25;8.53;;;2.80;;
12030;SDS011;6076;50.872;4.714;2022-11-23T10:43:58;7.83;;;2.77;;
12030;SDS011;6076;50.872;4.714;2022-11-23T10:46:31;6.20;;;2.50;;
12030;SDS011;6076;50.872;4.714;2022-11-23T10:49:12;7.37;;;2.33;;
12030;SDS011;6076;50.872;4.714;2022-11-23T10:51:49;5.30;;;1.90;;
12030;SDS011;6076;50.872;4.714;2022-11-23T10:54:21;7.40;;;2.20;;
12030;SDS011;6076;50.872;4.714;2022-11-23T10:56:52;5.43;;;2.27;;
12030;SDS011;6076;50.872;4.714;2022-11-23T10:59:29;4.67;;;2.10;;
12030;SDS011;6076;50.872;4.714;2022-11-23T11:02:09;10.40;;;2.10;;
12030;SDS011;6076;50.872;4.714;2022-11-23T11:04:46;8.43;;;2.40;;
12030;SDS011;6076;50.872;4.714;2022-11-23T11:07:21;9.10;;;2.33;;
12030;SDS011;6076;50.872;4.714;2022-11-23T11:09:56;6.40;;;2.20;;
12030;SDS011;6076;50.872;4.714;2022-11-23T11:12:25;7.30;;;2.50;;
12030;SDS011;6076;50.872;4.714;2022-11-23T11:15:02;5.60;;;2.10;;
12030;SDS011;6076;50.872;4.714;2022-11-23T11:17:41;9.27;;;2.83;;
12030;SDS011;6076;50.872;4.714;2022-11-23T11:20:23;8.03;;;2.77;;
12030;SDS011;6076;50.872;4.714;2022-11-23T11:23:14;5.63;;;2.00;;
12030;SDS011;6076;50.872;4.714;2022-11-23T11:25:45;4.93;;;2.20;;
12030;SDS011;6076;50.872;4.714;2022-11-23T11:28:48;5.57;;;2.30;;
12030;SDS011;6076;50.872;4.714;2022-11-23T11:31:33;8.40;;;2.33;;
12030;SDS011;6076;50.872;4.714;2022-11-23T11:34:12;6.93;;;2.30;;
12030;SDS011;6076;50.872;4.714;2022-11-23T11:36:48;6.90;;;2.37;;
12030;SDS011;6076;50.872;4.714;2022-11-23T11:39:22;5.10;;;2.03;;
12030;SDS011;6076;50.872;4.714;2022-11-23T11:42:04;6.10;;;2.10;;
12030;SDS011;6076;50.872;4.714;2022-11-23T11:45:10;5.30;;;1.93;;
12030;SDS011;6076;50.872;4.714;2022-11-23T11:47:48;4.57;;;2.10;;
12030;SDS011;6076;50.872;4.714;2022-11-23T11:50:22;5.70;;;1.90;;
12030;SDS011;6076;50.872;4.714;2022-11-23T11:53:02;4.93;;;2.13;;
12030;SDS011;6076;50.872;4.714;2022-11-23T11:55:45;8.60;;;2.00;;
12030;SDS011;6076;50.872;4.714;2022-11-23T11:58:38;4.67;;;1.70;;
12030;SDS011;6076;50.872;4.714;2022-11-23T12:08:56;4.27;;;1.83;;
12030;SDS011;6076;50.872;4.714;2022-11-23T12:27:08;4.13;;;2.00;;
12030;SDS011;6076;50.872;4.714;2022-11-23T12:30:13;3.10;;;1.50;;
12030;SDS011;6076;50.872;4.714;2022-11-23T12:36:18;3.77;;;1.80;;
12030;SDS011;6076;50.872;4.714;2022-11-23T12:39:04;5.30;;;2.00;;
12030;SDS011;6076;50.872;4.714;2022-11-23T12:41:51;2.63;;;1.70;;
12030;SDS011;6076;50.872;4.714;2022-11-23T12:47:44;7.43;;;2.60;;
12030;SDS011;6076;50.872;4.714;2022-11-23T12:50:29;3.63;;;1.50;;
12030;SDS011;6076;50.872;4.714;2022-11-23T12:53:07;3.93;;;1.77;;
12030;SDS011;6076;50.872;4.714;2022-11-23T12:56:12;3.07;;;1.83;;
12030;SDS011;6076;50.872;4.714;2022-11-23T12:58:59;2.70;;;1.43;;
12030;SDS011;6076;50.872;4.714;2022-11-23T13:01:29;3.40;;;1.67;;
12030;SDS011;6076;50.872;4.714;2022-11-23T13:13:47;2.40;;;1.40;;
12030;SDS011;6076;50.872;4.714;2022-11-23T13:16:42;2.90;;;1.50;;
12030;SDS011;6076;50.872;4.714;2022-11-23T13:19:34;3.50;;;1.67;;
12030;SDS011;6076;50.872;4.714;2022-11-23T13:22:29;3.93;;;1.70;;
12030;SDS011;6076;50.872;4.714;2022-11-23T13:27:54;3.43;;;1.70;;
12030;SDS011;6076;50.872;4.714;2022-11-23T13:30:37;4.43;;;1.90;;
12030;SDS011;6076;50.872;4.714;2022-11-23T13:33:23;3.23;;;1.83;;
12030;SDS011;6076;50.872;4.714;2022-11-23T13:36:00;5.03;;;2.10;;
12030;SDS011;6076;50.872;4.714;2022-11-23T13:38:42;3.07;;;1.47;;
12030;SDS011;6076;50.872;4.714;2022-11-23T13:44:28;4.00;;;1.67;;
12030;SDS011;6076;50.872;4.714;2022-11-23T13:47:00;5.87;;;1.93;;
12030;SDS011;6076;50.872;4.714;2022-11-23T13:49:43;2.87;;;2.23;;
12030;SDS011;6076;50.872;4.714;2022-11-23T13:52:28;4.43;;;1.70;;
12030;SDS011;6076;50.872;4.714;2022-11-23T13:55:02;4.13;;;1.73;;
12030;SDS011;6076;50.872;4.714;2022-11-23T13:57:45;4.20;;;1.70;;
12030;SDS011;6076;50.872;4.714;2022-11-23T14:00:52;4.53;;;1.73;;
12030;SDS011;6076;50.872;4.714;2022-11-23T14:06:26;2.63;;;1.70;;
12030;SDS011;6076;50.872;4.714;2022-11-23T14:09:11;3.70;;;1.73;;
12030;SDS011;6076;50.872;4.714;2022-11-23T14:11:51;3.50;;;1.87;;
12030;SDS011;6076;50.872;4.714;2022-11-23T14:14:32;5.43;;;1.80;;
12030;SDS011;6076;50.872;4.714;2022-11-23T14:20:49;3.73;;;1.70;;
12030;SDS011;6076;50.872;4.714;2022-11-23T14:23:41;3.53;;;1.80;;
12030;SDS011;6076;50.872;4.714;2022-11-23T14:26:41;2.83;;;1.73;;
12030;SDS011;6076;50.872;4.714;2022-11-23T14:29:38;1.97;;;1.57;;
12030;SDS011;6076;50.872;4.714;2022-11-23T14:32:54;2.10;;;1.47;;
12030;SDS011;6076;50.872;4.714;2022-11-23T14:35:52;2.40;;;1.50;;
12030;SDS011;6076;50.872;4.714;2022-11-23T14:38:37;8.37;;;5.53;;
12030;SDS011;6076;50.872;4.714;2022-11-23T14:41:40;3.00;;;1.80;;
12030;SDS011;6076;50.872;4.714;2022-11-23T14:44:29;2.67;;;1.60;;
12030;SDS011;6076;50.872;4.714;2022-11-23T14:47:05;5.53;;;2.00;;
12030;SDS011;6076;50.872;4.714;2022-11-23T14:49:48;3.20;;;1.50;;
12030;SDS011;6076;50.872;4.714;2022-11-23T14:52:43;3.30;;;1.40;;
12030;SDS011;6076;50.872;4.714;2022-11-23T14:55:24;2.03;;;1.50;;
12030;SDS011;6076;50.872;4.714;2022-11-23T14:58:06;2.90;;;1.70;;
12030;SDS011;6076;50.872;4.714;2022-11-23T15:00:57;2.97;;;1.63;;
12030;SDS011;6076;50.872;4.714;2022-11-23T15:03:32;2.23;;;1.53;;
12030;SDS011;6076;50.872;4.714;2022-11-23T15:06:05;2.47;;;1.47;;
12030;SDS011;6076;50.872;4.714;2022-11-23T15:08:44;3.67;;;1.60;;
12030;SDS011;6076;50.872;4.714;2022-11-23T15:11:27;2.67;;;1.60;;
12030;SDS011;6076;50.872;4.714;2022-11-23T15:14:15;3.00;;;1.70;;
12030;SDS011;6076;50.872;4.714;2022-11-23T15:17:14;2.27;;;1.53;;
12030;SDS011;6076;50.872;4.714;2022-11-23T15:19:55;2.83;;;1.80;;
12030;SDS011;6076;50.872;4.714;2022-11-23T15:22:33;2.37;;;1.77;;
12030;SDS011;6076;50.872;4.714;2022-11-23T15:25:28;2.93;;;1.70;;
12030;SDS011;6076;50.872;4.714;2022-11-23T15:28:10;2.00;;;1.60;;
12030;SDS011;6076;50.872;4.714;2022-11-23T15:30:52;2.13;;;1.70;;
12030;SDS011;6076;50.872;4.714;2022-11-23T15:33:24;2.43;;;1.60;;
12030;SDS011;6076;50.872;4.714;2022-11-23T15:35:58;3.30;;;1.80;;
12030;SDS011;6076;50.872;4.714;2022-11-23T15:38:39;2.83;;;1.90;;
12030;SDS011;6076;50.872;4.714;2022-11-23T15:41:23;3.07;;;1.70;;
12030;SDS011;6076;50.872;4.714;2022-11-23T15:44:14;3.50;;;1.93;;
12030;SDS011;6076;50.872;4.714;2022-11-23T15:46:48;2.47;;;1.67;;
12030;SDS011;6076;50.872;4.714;2022-11-23T15:49:30;2.63;;;1.87;;
12030;SDS011;6076;50.872;4.714;2022-11-23T15:52:09;4.73;;;2.33;;
12030;SDS011;6076;50.872;4.714;2022-11-23T15:54:41;2.77;;;2.10;;
12030;SDS011;6076;50.872;4.714;2022-11-23T15:57:25;4.67;;;2.20;;
12030;SDS011;6076;50.872;4.714;2022-11-23T15:59:57;4.63;;;2.30;;
12030;SDS011;6076;50.872;4.714;2022-11-23T16:02:35;2.67;;;1.93;;
12030;SDS011;6076;50.872;4.714;2022-11-23T16:05:07;3.57;;;2.00;;
12030;SDS011;6076;50.872;4.714;2022-11-23T16:07:53;4.77;;;2.50;;
12030;SDS011;6076;50.872;4.714;2022-11-23T16:10:52;5.63;;;2.77;;
12030;SDS011;6076;50.872;4.714;2022-11-23T16:13:34;3.00;;;2.40;;
12030;SDS011;6076;50.872;4.714;2022-11-23T16:16:04;2.80;;;2.50;;
12030;SDS011;6076;50.872;4.714;2022-11-23T16:18:46;4.67;;;2.73;;
12030;SDS011;6076;50.872;4.714;2022-11-23T16:21:26;4.13;;;2.90;;
12030;SDS011;6076;50.872;4.714;2022-11-23T16:24:13;4.43;;;2.57;;
12030;SDS011;6076;50.872;4.714;2022-11-23T16:26:49;3.53;;;2.67;;
12030;SDS011;6076;50.872;4.714;2022-11-23T16:29:22;5.27;;;2.47;;
12030;SDS011;6076;50.872;4.714;2022-11-23T16:31:56;5.27;;;3.17;;
12030;SDS011;6076;50.872;4.714;2022-11-23T17:59:37;8.20;;;3.83;;
12030;SDS011;6076;50.872;4.714;2022-11-23T18:02:11;8.57;;;3.93;;
